sensor_id;sensor_type;location;lat;lon;timestamp;pressure;altitude;pressure_sealevel;temperature;humidity
21504;BME280;10913;51.992;9.228;2023-04-03T00:01:04;101765.63;;;3.34;83.70
21504;BME280;10913;51.992;9.228;2023-04-03T00:03:29;101762.88;;;3.31;83.32
21504;BME280;10913;51.992;9.228;2023-04-03T00:05:55;101767.13;;;3.29;83.29
21504;BME280;10913;51.992;9.228;2023-04-03T00:08:21;101773.69;;;3.21;83.35
21504;BME280;10913;51.992;9.228;2023-04-03T00:10:47;101767.25;;;3.13;84.50
21504;BME280;10913;51.992;9.228;2023-04-03T00:13:12;101777.69;;;3.13;84.24
21504;BME280;10913;51.992;9.228;2023-04-03T00:15:38;101783.00;;;3.14;84.22
21504;BME280;10913;51.992;9.228;2023-04-03T00:18:04;101785.53;;;3.13;84.22
21504;BME280;10913;51.992;9.228;2023-04-03T00:20:30;101790.75;;;3.13;84.18
21504;BME280;10913;51.992;9.228;2023-04-03T00:22:56;101789.69;;;3.09;84.35
21504;BME280;10913;51.992;9.228;2023-04-03T00:25:21;101795.75;;;3.08;84.43
21504;BME280;10913;51.992;9.228;2023-04-03T00:27:46;101791.41;;;3.08;83.76
21504;BME280;10913;51.992;9.228;2023-04-03T00:30:17;101795.75;;;3.08;83.82
21504;BME280;10913;51.992;9.228;2023-04-03T00:32:43;101798.13;;;3.03;83.98
21504;BME280;10913;51.992;9.228;2023-04-03T00:35:08;101797.97;;;3.00;83.67
21504;BME280;10913;51.992;9.228;2023-04-03T00:37:35;101796.06;;;2.96;84.13
21504;BME280;10913;51.992;9.228;2023-04-03T00:40:01;101799.50;;;2.95;84.06
21504;BME280;10913;51.992;9.228;2023-04-03T00:42:26;101797.63;;;2.93;84.34
21504;BME280;10913;51.992;9.228;2023-04-03T00:47:21;101804.09;;;2.83;84.43
21504;BME280;10913;51.992;9.228;2023-04-03T00:49:46;101790.72;;;2.75;84.84
21504;BME280;10913;51.992;9.228;2023-04-03T00:52:16;101797.47;;;2.72;83.74
21504;BME280;10913;51.992;9.228;2023-04-03T00:54:43;101803.22;;;2.65;84.39
21504;BME280;10913;51.992;9.228;2023-04-03T00:57:11;101807.38;;;2.61;84.04
21504;BME280;10913;51.992;9.228;2023-04-03T00:59:40;101806.44;;;2.59;84.76
21504;BME280;10913;51.992;9.228;2023-04-03T01:02:07;101810.75;;;2.59;84.87
21504;BME280;10913;51.992;9.228;2023-04-03T01:04:35;101813.38;;;2.59;85.23
21504;BME280;10913;51.992;9.228;2023-04-03T01:07:06;101815.00;;;2.57;85.38
21504;BME280;10913;51.992;9.228;2023-04-03T01:09:33;101816.63;;;2.55;85.45
21504;BME280;10913;51.992;9.228;2023-04-03T01:12:20;101813.28;;;2.57;85.70
21504;BME280;10913;51.992;9.228;2023-04-03T01:14:49;101815.97;;;2.59;85.73
21504;BME280;10913;51.992;9.228;2023-04-03T01:17:34;101811.56;;;2.58;85.86
21504;BME280;10913;51.992;9.228;2023-04-03T01:25:53;101816.47;;;2.52;86.55
21504;BME280;10913;51.992;9.228;2023-04-03T01:31:02;101816.31;;;2.49;86.32
21504;BME280;10913;51.992;9.228;2023-04-03T01:33:32;101816.16;;;2.46;86.38
21504;BME280;10913;51.992;9.228;2023-04-03T01:35:58;101813.38;;;2.42;85.90
21504;BME280;10913;51.992;9.228;2023-04-03T01:38:23;101819.28;;;2.38;85.82
21504;BME280;10913;51.992;9.228;2023-04-03T01:40:49;101819.28;;;2.38;86.05
21504;BME280;10913;51.992;9.228;2023-04-03T01:43:14;101820.03;;;2.36;86.00
21504;BME280;10913;51.992;9.228;2023-04-03T01:45:39;101821.59;;;2.32;86.06
21504;BME280;10913;51.992;9.228;2023-04-03T01:48:05;101822.41;;;2.31;86.72
21504;BME280;10913;51.992;9.228;2023-04-03T01:50:30;101817.19;;;2.31;87.03
21504;BME280;10913;51.992;9.228;2023-04-03T01:52:56;101818.66;;;2.26;86.62
21504;BME280;10913;51.992;9.228;2023-04-03T01:55:21;101822.00;;;2.24;86.64
21504;BME280;10913;51.992;9.228;2023-04-03T01:57:46;101820.13;;;2.21;86.75
21504;BME280;10913;51.992;9.228;2023-04-03T02:00:13;101820.81;;;2.17;87.31
21504;BME280;10913;51.992;9.228;2023-04-03T02:02:39;101812.81;;;2.14;87.42
21504;BME280;10913;51.992;9.228;2023-04-03T02:05:04;101820.47;;;2.11;87.38
21504;BME280;10913;51.992;9.228;2023-04-03T02:07:30;101819.50;;;2.09;87.28
21504;BME280;10913;51.992;9.228;2023-04-03T02:09:55;101817.53;;;2.05;87.46
21504;BME280;10913;51.992;9.228;2023-04-03T02:12:21;101823.41;;;2.01;88.11
21504;BME280;10913;51.992;9.228;2023-04-03T02:14:46;101821.47;;;1.97;88.28
21504;BME280;10913;51.992;9.228;2023-04-03T02:17:11;101822.38;;;1.97;88.45
21504;BME280;10913;51.992;9.228;2023-04-03T02:19:37;101825.00;;;1.97;88.24
21504;BME280;10913;51.992;9.228;2023-04-03T02:22:03;101821.47;;;1.97;87.87
21504;BME280;10913;51.992;9.228;2023-04-03T02:24:29;101827.34;;;1.93;87.56
21504;BME280;10913;51.992;9.228;2023-04-03T02:26:55;101824.31;;;1.85;87.70
21504;BME280;10913;51.992;9.228;2023-04-03T02:29:20;101831.88;;;1.81;87.55
21504;BME280;10913;51.992;9.228;2023-04-03T02:31:46;101829.97;;;1.77;87.87
21504;BME280;10913;51.992;9.228;2023-04-03T02:34:11;101827.28;;;1.75;88.58
21504;BME280;10913;51.992;9.228;2023-04-03T02:36:36;101822.97;;;1.76;89.08
21504;BME280;10913;51.992;9.228;2023-04-03T02:39:02;101822.16;;;1.77;88.57
21504;BME280;10913;51.992;9.228;2023-04-03T02:41:28;101828.34;;;1.79;88.85
21504;BME280;10913;51.992;9.228;2023-04-03T02:44:00;101824.91;;;1.80;88.54
21504;BME280;10913;51.992;9.228;2023-04-03T02:46:26;101834.56;;;1.82;89.93
21504;BME280;10913;51.992;9.228;2023-04-03T02:48:51;101836.19;;;1.80;88.81
21504;BME280;10913;51.992;9.228;2023-04-03T02:51:17;101834.38;;;1.78;88.46
21504;BME280;10913;51.992;9.228;2023-04-03T02:53:43;101837.59;;;1.73;88.49
21504;BME280;10913;51.992;9.228;2023-04-03T02:56:08;101836.47;;;1.68;88.66
21504;BME280;10913;51.992;9.228;2023-04-03T02:58:34;101839.06;;;1.68;88.81
21504;BME280;10913;51.992;9.228;2023-04-03T03:01:00;101841.50;;;1.65;90.05
21504;BME280;10913;51.992;9.228;2023-04-03T03:03:26;101833.84;;;1.68;90.23
21504;BME280;10913;51.992;9.228;2023-04-03T03:06:18;101841.66;;;1.68;90.17
21504;BME280;10913;51.992;9.228;2023-04-03T03:08:43;101852.09;;;1.68;89.66
21504;BME280;10913;51.992;9.228;2023-04-03T03:11:10;101842.31;;;1.64;89.65
21504;BME280;10913;51.992;9.228;2023-04-03T03:13:35;101840.50;;;1.63;90.04
21504;BME280;10913;51.992;9.228;2023-04-03T03:16:01;101848.16;;;1.60;89.79
21504;BME280;10913;51.992;9.228;2023-04-03T03:18:27;101849.81;;;1.58;89.92
21504;BME280;10913;51.992;9.228;2023-04-03T03:20:53;101848.03;;;1.57;89.97
21504;BME280;10913;51.992;9.228;2023-04-03T03:23:20;101852.41;;;1.58;89.87
21504;BME280;10913;51.992;9.228;2023-04-03T03:25:46;101853.06;;;1.54;89.65
21504;BME280;10913;51.992;9.228;2023-04-03T03:28:11;101861.69;;;1.53;89.60
21504;BME280;10913;51.992;9.228;2023-04-03T03:30:37;101864.13;;;1.50;89.97
21504;BME280;10913;51.992;9.228;2023-04-03T03:33:02;101864.19;;;1.52;90.69
21504;BME280;10913;51.992;9.228;2023-04-03T03:35:28;101864.03;;;1.49;89.56
21504;BME280;10913;51.992;9.228;2023-04-03T03:37:53;101868.34;;;1.48;89.74
21504;BME280;10913;51.992;9.228;2023-04-03T03:40:18;101858.91;;;1.50;90.46
21504;BME280;10913;51.992;9.228;2023-04-03T03:42:44;101860.69;;;1.51;90.01
21504;BME280;10913;51.992;9.228;2023-04-03T03:45:09;101861.44;;;1.49;90.20
21504;BME280;10913;51.992;9.228;2023-04-03T03:47:35;101855.88;;;1.43;89.12
21504;BME280;10913;51.992;9.228;2023-04-03T03:50:01;101853.03;;;1.38;90.57
21504;BME280;10913;51.992;9.228;2023-04-03T03:52:26;101859.06;;;1.37;90.27
21504;BME280;10913;51.992;9.228;2023-04-03T03:54:52;101851.06;;;1.34;90.65
21504;BME280;10913;51.992;9.228;2023-04-03T03:57:18;101853.41;;;1.29;90.35
21504;BME280;10913;51.992;9.228;2023-04-03T03:59:43;101855.94;;;1.28;90.90
21504;BME280;10913;51.992;9.228;2023-04-03T04:02:10;101858.53;;;1.28;90.71
21504;BME280;10913;51.992;9.228;2023-04-03T04:04:35;101865.44;;;1.27;90.97
21504;BME280;10913;51.992;9.228;2023-04-03T04:07:01;101861.75;;;1.24;90.92
21504;BME280;10913;51.992;9.228;2023-04-03T04:09:26;101852.16;;;1.23;91.02
21504;BME280;10913;51.992;9.228;2023-04-03T04:11:52;101859.97;;;1.23;90.72
21504;BME280;10913;51.992;9.228;2023-04-03T04:14:18;101863.25;;;1.19;90.73
21504;BME280;10913;51.992;9.228;2023-04-03T04:16:45;101864.84;;;1.17;90.65
21504;BME280;10913;51.992;9.228;2023-04-03T04:19:11;101861.28;;;1.15;91.32
21504;BME280;10913;51.992;9.228;2023-04-03T04:21:36;101857.84;;;1.16;91.64
21504;BME280;10913;51.992;9.228;2023-04-03T04:24:02;101862.00;;;1.12;91.43
21504;BME280;10913;51.992;9.228;2023-04-03T04:26:27;101857.50;;;1.10;91.41
21504;BME280;10913;51.992;9.228;2023-04-03T04:28:53;101862.25;;;1.02;91.72
21504;BME280;10913;51.992;9.228;2023-04-03T04:31:18;101863.00;;;0.99;91.99
21504;BME280;10913;51.992;9.228;2023-04-03T04:33:43;101860.41;;;0.99;91.79
21504;BME280;10913;51.992;9.228;2023-04-03T04:36:09;101867.38;;;1.00;93.22
21504;BME280;10913;51.992;9.228;2023-04-03T04:38:35;101869.75;;;0.96;92.69
21504;BME280;10913;51.992;9.228;2023-04-03T04:41:01;101872.44;;;0.97;92.31
21504;BME280;10913;51.992;9.228;2023-04-03T04:43:26;101870.47;;;0.93;92.37
21504;BME280;10913;51.992;9.228;2023-04-03T04:46:02;101873.97;;;0.94;92.45
21504;BME280;10913;51.992;9.228;2023-04-03T04:48:28;101875.66;;;0.93;92.46
21504;BME280;10913;51.992;9.228;2023-04-03T04:50:53;101881.84;;;0.95;92.95
21504;BME280;10913;51.992;9.228;2023-04-03T04:53:18;101896.47;;;0.93;92.85
21504;BME280;10913;51.992;9.228;2023-04-03T04:55:44;101898.91;;;0.90;93.08
21504;BME280;10913;51.992;9.228;2023-04-03T04:58:09;101892.97;;;0.93;93.43
21504;BME280;10913;51.992;9.228;2023-04-03T05:00:34;101898.09;;;0.91;93.06
21504;BME280;10913;51.992;9.228;2023-04-03T05:03:00;101897.28;;;0.92;93.33
21504;BME280;10913;51.992;9.228;2023-04-03T05:05:25;101899.00;;;0.92;92.77
21504;BME280;10913;51.992;9.228;2023-04-03T05:07:50;101899.88;;;0.92;92.79
21504;BME280;10913;51.992;9.228;2023-04-03T05:10:16;101888.75;;;0.95;92.95
21504;BME280;10913;51.992;9.228;2023-04-03T05:12:41;101901.69;;;0.93;92.70
21504;BME280;10913;51.992;9.228;2023-04-03T05:15:07;101901.59;;;0.92;92.85
21504;BME280;10913;51.992;9.228;2023-04-03T05:17:32;101910.13;;;0.89;92.97
21504;BME280;10913;51.992;9.228;2023-04-03T05:19:58;101905.81;;;0.90;93.30
21504;BME280;10913;51.992;9.228;2023-04-03T05:22:26;101907.69;;;0.92;93.09
21504;BME280;10913;51.992;9.228;2023-04-03T05:24:51;101909.66;;;0.96;92.78
21504;BME280;10913;51.992;9.228;2023-04-03T05:27:16;101908.88;;;0.97;92.67
21504;BME280;10913;51.992;9.228;2023-04-03T05:29:42;101910.66;;;0.98;92.60
21504;BME280;10913;51.992;9.228;2023-04-03T05:32:09;101914.22;;;1.00;92.36
21504;BME280;10913;51.992;9.228;2023-04-03T05:34:35;101915.06;;;0.99;92.12
21504;BME280;10913;51.992;9.228;2023-04-03T05:37:00;101906.34;;;0.99;91.52
21504;BME280;10913;51.992;9.228;2023-04-03T05:39:28;101916.00;;;1.01;91.34
21504;BME280;10913;51.992;9.228;2023-04-03T05:41:53;101921.22;;;1.01;91.38
21504;BME280;10913;51.992;9.228;2023-04-03T05:44:18;101924.63;;;1.00;91.62
21504;BME280;10913;51.992;9.228;2023-04-03T05:46:44;101928.13;;;1.01;92.23
21504;BME280;10913;51.992;9.228;2023-04-03T05:49:09;101930.00;;;1.03;92.20
21504;BME280;10913;51.992;9.228;2023-04-03T05:51:36;101939.88;;;1.09;91.91
21504;BME280;10913;51.992;9.228;2023-04-03T05:54:17;101930.56;;;1.13;90.69
21504;BME280;10913;51.992;9.228;2023-04-03T05:56:43;101940.97;;;1.13;90.69
21504;BME280;10913;51.992;9.228;2023-04-03T05:59:09;101942.66;;;1.12;91.25
21504;BME280;10913;51.992;9.228;2023-04-03T06:01:34;101952.47;;;1.16;91.46
21504;BME280;10913;51.992;9.228;2023-04-03T06:04:00;101954.59;;;1.23;91.16
21504;BME280;10913;51.992;9.228;2023-04-03T06:06:25;101952.44;;;1.31;91.21
21504;BME280;10913;51.992;9.228;2023-04-03T06:08:50;101950.19;;;1.37;90.26
21504;BME280;10913;51.992;9.228;2023-04-03T06:11:16;101946.91;;;1.41;89.95
21504;BME280;10913;51.992;9.228;2023-04-03T06:13:42;101948.88;;;1.45;89.66
21504;BME280;10913;51.992;9.228;2023-04-03T06:16:11;101953.47;;;1.49;89.09
21504;BME280;10913;51.992;9.228;2023-04-03T06:18:39;101946.63;;;1.51;88.78
21504;BME280;10913;51.992;9.228;2023-04-03T06:21:04;101955.63;;;1.56;88.46
21504;BME280;10913;51.992;9.228;2023-04-03T06:23:30;101962.63;;;1.57;87.28
21504;BME280;10913;51.992;9.228;2023-04-03T06:25:55;101971.25;;;1.56;87.81
21504;BME280;10913;51.992;9.228;2023-04-03T06:28:21;101969.03;;;1.64;88.61
21504;BME280;10913;51.992;9.228;2023-04-03T06:30:46;101975.69;;;1.73;87.93
21504;BME280;10913;51.992;9.228;2023-04-03T06:33:12;101971.78;;;1.82;87.81
21504;BME280;10913;51.992;9.228;2023-04-03T06:35:37;101974.09;;;1.92;87.39
21504;BME280;10913;51.992;9.228;2023-04-03T06:38:03;101968.56;;;2.02;86.27
21504;BME280;10913;51.992;9.228;2023-04-03T06:40:34;101973.22;;;2.07;85.21
21504;BME280;10913;51.992;9.228;2023-04-03T06:43:01;101971.75;;;2.13;84.83
21504;BME280;10913;51.992;9.228;2023-04-03T06:45:26;101976.25;;;2.15;85.03
21504;BME280;10913;51.992;9.228;2023-04-03T06:47:53;101985.06;;;2.17;83.61
21504;BME280;10913;51.992;9.228;2023-04-03T06:50:18;101977.06;;;2.30;84.21
21504;BME280;10913;51.992;9.228;2023-04-03T06:52:44;101993.69;;;2.49;84.51
21504;BME280;10913;51.992;9.228;2023-04-03T06:55:10;101986.41;;;2.75;83.67
21504;BME280;10913;51.992;9.228;2023-04-03T06:57:35;101989.28;;;3.14;82.86
21504;BME280;10913;51.992;9.228;2023-04-03T07:00:01;101991.66;;;3.98;81.96
21504;BME280;10913;51.992;9.228;2023-04-03T07:02:28;101986.56;;;5.82;75.34
21504;BME280;10913;51.992;9.228;2023-04-03T07:04:53;101981.59;;;8.14;68.22
21504;BME280;10913;51.992;9.228;2023-04-03T07:07:18;101986.75;;;10.90;62.68
21504;BME280;10913;51.992;9.228;2023-04-03T07:09:44;101965.88;;;13.83;55.97
21504;BME280;10913;51.992;9.228;2023-04-03T07:12:09;101968.25;;;15.73;52.42
21504;BME280;10913;51.992;9.228;2023-04-03T07:14:35;101955.72;;;17.69;49.42
21504;BME280;10913;51.992;9.228;2023-04-03T07:17:01;101951.59;;;19.47;46.10
21504;BME280;10913;51.992;9.228;2023-04-03T07:19:26;101959.28;;;20.99;44.76
21504;BME280;10913;51.992;9.228;2023-04-03T07:21:53;101964.88;;;21.98;43.23
21504;BME280;10913;51.992;9.228;2023-04-03T07:24:18;101961.81;;;23.31;42.28
21504;BME280;10913;51.992;9.228;2023-04-03T07:26:44;101959.59;;;23.44;40.29
21504;BME280;10913;51.992;9.228;2023-04-03T07:29:10;101973.50;;;23.58;40.08
21504;BME280;10913;51.992;9.228;2023-04-03T07:31:35;101980.31;;;23.16;39.38
21504;BME280;10913;51.992;9.228;2023-04-03T07:34:02;101986.31;;;23.78;39.76
21504;BME280;10913;51.992;9.228;2023-04-03T07:36:27;101992.34;;;24.37;39.18
21504;BME280;10913;51.992;9.228;2023-04-03T07:38:54;101994.75;;;24.45;38.84
21504;BME280;10913;51.992;9.228;2023-04-03T07:41:19;101992.16;;;23.66;38.56
21504;BME280;10913;51.992;9.228;2023-04-03T07:43:47;101995.56;;;23.17;38.55
21504;BME280;10913;51.992;9.228;2023-04-03T07:46:15;101994.72;;;23.70;38.12
21504;BME280;10913;51.992;9.228;2023-04-03T07:48:41;101994.56;;;23.47;38.47
21504;BME280;10913;51.992;9.228;2023-04-03T07:51:06;101996.06;;;24.35;38.47
21504;BME280;10913;51.992;9.228;2023-04-03T07:53:32;101983.38;;;25.29;36.93
21504;BME280;10913;51.992;9.228;2023-04-03T07:55:58;101990.75;;;25.69;37.15
21504;BME280;10913;51.992;9.228;2023-04-03T07:58:24;101991.38;;;26.16;36.60
21504;BME280;10913;51.992;9.228;2023-04-03T08:00:50;101996.25;;;25.88;36.09
21504;BME280;10913;51.992;9.228;2023-04-03T08:03:16;101996.44;;;26.24;36.29
21504;BME280;10913;51.992;9.228;2023-04-03T08:05:45;101988.78;;;26.54;35.44
21504;BME280;10913;51.992;9.228;2023-04-03T08:08:12;101987.25;;;26.07;35.59
21504;BME280;10913;51.992;9.228;2023-04-03T08:10:39;101990.94;;;25.64;35.65
21504;BME280;10913;51.992;9.228;2023-04-03T08:13:05;101999.22;;;23.96;36.55
21504;BME280;10913;51.992;9.228;2023-04-03T08:15:31;101998.16;;;23.76;37.81
21504;BME280;10913;51.992;9.228;2023-04-03T08:17:56;101997.09;;;22.03;38.54
21504;BME280;10913;51.992;9.228;2023-04-03T08:20:22;101997.56;;;23.10;38.56
21504;BME280;10913;51.992;9.228;2023-04-03T08:22:47;101994.09;;;24.14;37.41
21504;BME280;10913;51.992;9.228;2023-04-03T08:25:13;101990.00;;;24.98;37.64
21504;BME280;10913;51.992;9.228;2023-04-03T08:27:38;101989.72;;;25.28;37.06
21504;BME280;10913;51.992;9.228;2023-04-03T08:30:04;101981.50;;;25.74;36.57
21504;BME280;10913;51.992;9.228;2023-04-03T08:32:30;101980.06;;;24.99;37.07
21504;BME280;10913;51.992;9.228;2023-04-03T08:34:55;101991.31;;;23.10;38.75
21504;BME280;10913;51.992;9.228;2023-04-03T08:37:21;101987.47;;;22.27;39.33
21504;BME280;10913;51.992;9.228;2023-04-03T08:39:46;101983.06;;;21.90;38.86
21504;BME280;10913;51.992;9.228;2023-04-03T08:42:19;101983.72;;;22.00;39.70
21504;BME280;10913;51.992;9.228;2023-04-03T08:45:08;101987.84;;;22.13;40.43
21504;BME280;10913;51.992;9.228;2023-04-03T08:50:26;101994.63;;;19.93;40.82
21504;BME280;10913;51.992;9.228;2023-04-03T08:52:58;101992.72;;;19.99;41.79
21504;BME280;10913;51.992;9.228;2023-04-03T08:55:33;101996.78;;;20.19;41.26
21504;BME280;10913;51.992;9.228;2023-04-03T08:58:20;101989.44;;;19.83;41.93
21504;BME280;10913;51.992;9.228;2023-04-03T09:03:29;101996.28;;;19.45;43.05
21504;BME280;10913;51.992;9.228;2023-04-03T09:06:01;101990.09;;;18.05;43.42
21504;BME280;10913;51.992;9.228;2023-04-03T09:08:31;101991.53;;;17.43;45.64
21504;BME280;10913;51.992;9.228;2023-04-03T09:16:55;101992.59;;;18.20;44.71
21504;BME280;10913;51.992;9.228;2023-04-03T09:24:38;101993.91;;;16.19;46.02
21504;BME280;10913;51.992;9.228;2023-04-03T09:27:05;102001.78;;;14.58;48.11
21504;BME280;10913;51.992;9.228;2023-04-03T09:29:31;102005.78;;;13.92;48.67
21504;BME280;10913;51.992;9.228;2023-04-03T09:32:01;102009.50;;;13.14;49.94
21504;BME280;10913;51.992;9.228;2023-04-03T09:36:57;102010.00;;;12.81;51.36
21504;BME280;10913;51.992;9.228;2023-04-03T09:39:30;102002.47;;;12.42;51.69
21504;BME280;10913;51.992;9.228;2023-04-03T09:42:04;101995.22;;;12.27;52.07
21504;BME280;10913;51.992;9.228;2023-04-03T09:44:32;101997.53;;;12.04;52.22
21504;BME280;10913;51.992;9.228;2023-04-03T09:46:58;101994.44;;;11.76;52.75
21504;BME280;10913;51.992;9.228;2023-04-03T09:49:24;102004.09;;;11.22;51.96
21504;BME280;10913;51.992;9.228;2023-04-03T09:51:50;102010.31;;;10.78;54.43
21504;BME280;10913;51.992;9.228;2023-04-03T09:54:36;102005.63;;;9.86;54.62
21504;BME280;10913;51.992;9.228;2023-04-03T09:57:11;102000.56;;;9.58;55.86
21504;BME280;10913;51.992;9.228;2023-04-03T09:59:43;101996.97;;;9.56;55.94
21504;BME280;10913;51.992;9.228;2023-04-03T10:02:21;101995.56;;;9.70;56.39
21504;BME280;10913;51.992;9.228;2023-04-03T10:04:47;101989.00;;;9.90;55.61
21504;BME280;10913;51.992;9.228;2023-04-03T10:07:45;101987.44;;;10.00;55.33
21504;BME280;10913;51.992;9.228;2023-04-03T10:10:21;101991.06;;;10.03;55.07
21504;BME280;10913;51.992;9.228;2023-04-03T10:12:48;101978.59;;;9.96;55.79
21504;BME280;10913;51.992;9.228;2023-04-03T10:15:27;101983.56;;;10.22;55.45
21504;BME280;10913;51.992;9.228;2023-04-03T10:18:09;101972.09;;;10.62;56.39
21504;BME280;10913;51.992;9.228;2023-04-03T10:20:47;101975.59;;;11.06;55.96
21504;BME280;10913;51.992;9.228;2023-04-03T10:23:22;101977.03;;;11.37;53.79
21504;BME280;10913;51.992;9.228;2023-04-03T10:29:17;101973.06;;;11.12;52.55
21504;BME280;10913;51.992;9.228;2023-04-03T10:34:30;101960.91;;;9.92;52.79
21504;BME280;10913;51.992;9.228;2023-04-03T10:40:02;101973.09;;;9.15;54.97
21504;BME280;10913;51.992;9.228;2023-04-03T10:48:18;101965.69;;;9.02;58.58
21504;BME280;10913;51.992;9.228;2023-04-03T10:53:55;101969.97;;;9.31;56.39
21504;BME280;10913;51.992;9.228;2023-04-03T10:59:35;101944.09;;;9.15;56.32
21504;BME280;10913;51.992;9.228;2023-04-03T11:02:51;101945.16;;;9.59;58.49
21504;BME280;10913;51.992;9.228;2023-04-03T11:04:55;101942.94;;;10.17;58.86
21504;BME280;10913;51.992;9.228;2023-04-03T11:07:28;101935.91;;;10.59;53.96
21504;BME280;10913;51.992;9.228;2023-04-03T11:10:11;101947.28;;;10.13;50.93
21504;BME280;10913;51.992;9.228;2023-04-03T11:12:52;101940.09;;;9.68;52.52
21504;BME280;10913;51.992;9.228;2023-04-03T11:15:32;101936.66;;;9.71;55.33
21504;BME280;10913;51.992;9.228;2023-04-03T11:18:02;101936.09;;;9.86;55.67
21504;BME280;10913;51.992;9.228;2023-04-03T11:20:31;101924.19;;;10.05;54.07
21504;BME280;10913;51.992;9.228;2023-04-03T11:25:50;101926.16;;;9.74;53.84
21504;BME280;10913;51.992;9.228;2023-04-03T11:28:17;101922.94;;;9.50;52.87
21504;BME280;10913;51.992;9.228;2023-04-03T11:31:24;101928.84;;;9.05;55.14
21504;BME280;10913;51.992;9.228;2023-04-03T11:37:23;101925.84;;;9.24;56.38
21504;BME280;10913;51.992;9.228;2023-04-03T11:39:56;101918.16;;;9.33;55.18
21504;BME280;10913;51.992;9.228;2023-04-03T11:42:34;101917.91;;;9.59;54.94
21504;BME280;10913;51.992;9.228;2023-04-03T11:45:27;101913.94;;;9.42;54.27
21504;BME280;10913;51.992;9.228;2023-04-03T11:51:00;101919.00;;;9.32;56.60
21504;BME280;10913;51.992;9.228;2023-04-03T11:53:30;101916.47;;;9.36;54.81
21504;BME280;10913;51.992;9.228;2023-04-03T11:55:58;101912.94;;;9.35;55.81
21504;BME280;10913;51.992;9.228;2023-04-03T12:01:08;101914.19;;;9.15;55.87
21504;BME280;10913;51.992;9.228;2023-04-03T12:26:44;101892.13;;;8.45;54.56
21504;BME280;10913;51.992;9.228;2023-04-03T12:29:23;101886.72;;;8.41;57.65
21504;BME280;10913;51.992;9.228;2023-04-03T12:40:34;101881.50;;;8.74;54.58
21504;BME280;10913;51.992;9.228;2023-04-03T12:51:38;101869.88;;;9.02;55.18
21504;BME280;10913;51.992;9.228;2023-04-03T12:54:40;101861.47;;;8.82;54.32
21504;BME280;10913;51.992;9.228;2023-04-03T12:59:41;101868.63;;;8.86;56.50
21504;BME280;10913;51.992;9.228;2023-04-03T13:02:25;101867.72;;;8.85;55.12
21504;BME280;10913;51.992;9.228;2023-04-03T13:04:53;101856.16;;;8.79;53.30
21504;BME280;10913;51.992;9.228;2023-04-03T13:07:23;101863.22;;;8.81;55.79
21504;BME280;10913;51.992;9.228;2023-04-03T13:10:14;101843.69;;;9.08;55.89
21504;BME280;10913;51.992;9.228;2023-04-03T13:12:52;101854.50;;;9.20;54.62
21504;BME280;10913;51.992;9.228;2023-04-03T13:15:25;101841.00;;;9.44;55.97
21504;BME280;10913;51.992;9.228;2023-04-03T13:17:51;101830.28;;;9.75;56.12
21504;BME280;10913;51.992;9.228;2023-04-03T13:20:27;101826.06;;;9.85;53.22
21504;BME280;10913;51.992;9.228;2023-04-03T13:23:02;101828.81;;;9.89;53.72
21504;BME280;10913;51.992;9.228;2023-04-03T13:25:33;101837.59;;;9.88;54.34
21504;BME280;10913;51.992;9.228;2023-04-03T13:28:00;101840.25;;;9.88;53.59
21504;BME280;10913;51.992;9.228;2023-04-03T13:30:35;101823.41;;;9.83;54.03
21504;BME280;10913;51.992;9.228;2023-04-03T13:33:05;101827.03;;;9.88;54.49
21504;BME280;10913;51.992;9.228;2023-04-03T13:38:06;101830.78;;;9.99;55.11
21504;BME280;10913;51.992;9.228;2023-04-03T13:40:32;101826.00;;;9.82;55.41
21504;BME280;10913;51.992;9.228;2023-04-03T13:43:18;101832.31;;;9.88;54.92
21504;BME280;10913;51.992;9.228;2023-04-03T13:46:22;101825.19;;;9.84;54.07
21504;BME280;10913;51.992;9.228;2023-04-03T13:48:53;101813.38;;;9.67;54.33
21504;BME280;10913;51.992;9.228;2023-04-03T13:51:26;101816.81;;;9.63;54.64
21504;BME280;10913;51.992;9.228;2023-04-03T13:53:58;101815.00;;;9.60;53.91
21504;BME280;10913;51.992;9.228;2023-04-03T13:56:35;101808.94;;;9.64;54.58
21504;BME280;10913;51.992;9.228;2023-04-03T14:01:43;101803.84;;;9.72;53.65
21504;BME280;10913;51.992;9.228;2023-04-03T14:04:25;101797.53;;;9.65;53.62
21504;BME280;10913;51.992;9.228;2023-04-03T14:06:53;101790.34;;;9.60;51.88
21504;BME280;10913;51.992;9.228;2023-04-03T14:09:20;101783.19;;;9.53;52.42
21504;BME280;10913;51.992;9.228;2023-04-03T14:11:47;101803.50;;;9.57;52.98
21504;BME280;10913;51.992;9.228;2023-04-03T14:14:22;101781.19;;;9.43;53.19
21504;BME280;10913;51.992;9.228;2023-04-03T14:16:53;101790.28;;;9.55;53.79
21504;BME280;10913;51.992;9.228;2023-04-03T14:19:31;101781.56;;;9.59;52.41
21504;BME280;10913;51.992;9.228;2023-04-03T14:21:57;101785.56;;;9.42;52.39
21504;BME280;10913;51.992;9.228;2023-04-03T14:24:24;101805.72;;;9.37;53.08
21504;BME280;10913;51.992;9.228;2023-04-03T14:26:52;101792.59;;;9.03;52.40
21504;BME280;10913;51.992;9.228;2023-04-03T14:29:18;101790.44;;;8.86;53.05
21504;BME280;10913;51.992;9.228;2023-04-03T14:31:46;101780.59;;;8.78;51.78
21504;BME280;10913;51.992;9.228;2023-04-03T14:34:12;101777.31;;;8.88;53.10
21504;BME280;10913;51.992;9.228;2023-04-03T14:36:38;101775.59;;;8.90;51.90
21504;BME280;10913;51.992;9.228;2023-04-03T14:39:07;101775.84;;;8.99;52.02
21504;BME280;10913;51.992;9.228;2023-04-03T14:41:34;101772.03;;;8.88;52.08
21504;BME280;10913;51.992;9.228;2023-04-03T14:43:59;101771.09;;;8.86;53.12
21504;BME280;10913;51.992;9.228;2023-04-03T14:46:33;101767.00;;;8.97;53.32
21504;BME280;10913;51.992;9.228;2023-04-03T14:49:00;101767.19;;;9.06;53.27
21504;BME280;10913;51.992;9.228;2023-04-03T14:51:26;101768.47;;;9.23;53.41
21504;BME280;10913;51.992;9.228;2023-04-03T14:53:52;101758.84;;;9.25;54.68
21504;BME280;10913;51.992;9.228;2023-04-03T14:56:21;101772.22;;;9.33;53.67